sensor_id;sensor_type;location;lat;lon;timestamp;pressure;altitude;pressure_sealevel;temperature;humidity
45872;BME280;32333;55.844;-3.210;2022-10-24T00:02:16;97427.48;;;14.45;100.00
45872;BME280;32333;55.844;-3.210;2022-10-24T00:04:43;97422.82;;;14.19;100.00
45872;BME280;32333;55.844;-3.210;2022-10-24T00:07:11;97417.74;;;13.06;100.00
45872;BME280;32333;55.844;-3.210;2022-10-24T00:09:39;97412.02;;;13.60;100.00
45872;BME280;32333;55.844;-3.210;2022-10-24T00:14:36;97411.54;;;14.02;100.00
45872;BME280;32333;55.844;-3.210;2022-10-24T00:17:04;97411.71;;;14.68;100.00
45872;BME280;32333;55.844;-3.210;2022-10-24T00:19:31;97414.12;;;14.42;100.00
45872;BME280;32333;55.844;-3.210;2022-10-24T00:21:59;97411.37;;;13.43;100.00
45872;BME280;32333;55.844;-3.210;2022-10-24T00:24:26;97412.63;;;14.26;100.00
45872;BME280;32333;55.844;-3.210;2022-10-24T00:26:53;97409.21;;;14.22;100.00
45872;BME280;32333;55.844;-3.210;2022-10-24T00:29:22;97408.00;;;15.60;100.00
45872;BME280;32333;55.844;-3.210;2022-10-24T00:31:50;97404.86;;;15.03;100.00
45872;BME280;32333;55.844;-3.210;2022-10-24T00:34:17;97404.16;;;15.22;100.00
45872;BME280;32333;55.844;-3.210;2022-10-24T00:36:46;97402.20;;;15.13;100.00
45872;BME280;32333;55.844;-3.210;2022-10-24T00:39:13;97400.54;;;13.43;100.00
45872;BME280;32333;55.844;-3.210;2022-10-24T00:41:41;97401.83;;;15.34;100.00
45872;BME280;32333;55.844;-3.210;2022-10-24T00:44:38;97399.59;;;14.95;100.00
45872;BME280;32333;55.844;-3.210;2022-10-24T00:47:09;97399.91;;;14.74;100.00
45872;BME280;32333;55.844;-3.210;2022-10-24T00:49:44;97400.65;;;14.37;100.00
45872;BME280;32333;55.844;-3.210;2022-10-24T00:52:14;97399.32;;;13.79;100.00
45872;BME280;32333;55.844;-3.210;2022-10-24T00:54:43;97395.35;;;14.09;100.00
45872;BME280;32333;55.844;-3.210;2022-10-24T00:57:15;97397.09;;;14.36;100.00
45872;BME280;32333;55.844;-3.210;2022-10-24T00:59:51;97393.17;;;13.74;100.00
45872;BME280;32333;55.844;-3.210;2022-10-24T01:02:20;97389.53;;;13.28;100.00
45872;BME280;32333;55.844;-3.210;2022-10-24T01:04:48;97391.64;;;13.02;100.00
45872;BME280;32333;55.844;-3.210;2022-10-24T01:07:26;97388.14;;;12.00;100.00
45872;BME280;32333;55.844;-3.210;2022-10-24T01:10:07;97382.76;;;13.12;100.00
45872;BME280;32333;55.844;-3.210;2022-10-24T01:14:44;97382.11;;;14.33;100.00
45872;BME280;32333;55.844;-3.210;2022-10-24T01:17:16;97380.33;;;14.53;100.00
45872;BME280;32333;55.844;-3.210;2022-10-24T01:20:33;97379.95;;;14.12;100.00
45872;BME280;32333;55.844;-3.210;2022-10-24T01:23:21;97377.73;;;13.74;100.00
45872;BME280;32333;55.844;-3.210;2022-10-24T01:26:03;97376.61;;;14.78;100.00
45872;BME280;32333;55.844;-3.210;2022-10-24T01:28:42;97375.81;;;14.81;100.00
45872;BME280;32333;55.844;-3.210;2022-10-24T01:31:18;97374.85;;;14.74;100.00
45872;BME280;32333;55.844;-3.210;2022-10-24T01:33:54;97373.18;;;14.08;100.00
45872;BME280;32333;55.844;-3.210;2022-10-24T01:36:29;97368.10;;;14.46;100.00
45872;BME280;32333;55.844;-3.210;2022-10-24T01:39:02;97366.34;;;14.47;100.00
45872;BME280;32333;55.844;-3.210;2022-10-24T01:41:32;97366.41;;;14.69;100.00
45872;BME280;32333;55.844;-3.210;2022-10-24T01:44:38;97366.28;;;14.23;100.00
45872;BME280;32333;55.844;-3.210;2022-10-24T01:47:11;97364.53;;;13.53;100.00
45872;BME280;32333;55.844;-3.210;2022-10-24T01:49:44;97362.85;;;14.72;100.00
45872;BME280;32333;55.844;-3.210;2022-10-24T01:52:15;97361.15;;;14.89;100.00
45872;BME280;32333;55.844;-3.210;2022-10-24T01:54:44;97360.10;;;14.22;100.00
45872;BME280;32333;55.844;-3.210;2022-10-24T01:57:13;97357.94;;;14.74;100.00
45872;BME280;32333;55.844;-3.210;2022-10-24T01:59:44;97361.14;;;14.12;100.00
45872;BME280;32333;55.844;-3.210;2022-10-24T02:02:16;97359.25;;;12.85;100.00
45872;BME280;32333;55.844;-3.210;2022-10-24T02:04:50;97358.12;;;13.72;100.00
45872;BME280;32333;55.844;-3.210;2022-10-24T02:07:21;97356.75;;;14.15;100.00
45872;BME280;32333;55.844;-3.210;2022-10-24T02:09:52;97356.05;;;14.14;100.00
45872;BME280;32333;55.844;-3.210;2022-10-24T02:14:40;97352.57;;;13.80;100.00
45872;BME280;32333;55.844;-3.210;2022-10-24T02:17:09;97348.60;;;14.25;100.00
45872;BME280;32333;55.844;-3.210;2022-10-24T02:19:37;97345.90;;;13.59;100.00
45872;BME280;32333;55.844;-3.210;2022-10-24T02:22:13;97344.77;;;13.30;100.00
45872;BME280;32333;55.844;-3.210;2022-10-24T02:24:50;97339.99;;;12.76;100.00
45872;BME280;32333;55.844;-3.210;2022-10-24T02:27:22;97336.73;;;13.11;100.00
45872;BME280;32333;55.844;-3.210;2022-10-24T02:29:55;97334.41;;;15.08;100.00
45872;BME280;32333;55.844;-3.210;2022-10-24T02:32:27;97331.13;;;13.97;100.00
45872;BME280;32333;55.844;-3.210;2022-10-24T02:35:00;97330.49;;;14.72;100.00
45872;BME280;32333;55.844;-3.210;2022-10-24T02:37:31;97329.64;;;13.78;100.00
45872;BME280;32333;55.844;-3.210;2022-10-24T02:40:02;97326.94;;;13.82;100.00
45872;BME280;32333;55.844;-3.210;2022-10-24T02:44:36;97321.24;;;14.17;100.00
45872;BME280;32333;55.844;-3.210;2022-10-24T02:47:05;97319.37;;;14.81;100.00
45872;BME280;32333;55.844;-3.210;2022-10-24T02:49:34;97319.21;;;14.70;100.00
45872;BME280;32333;55.844;-3.210;2022-10-24T02:52:01;97314.87;;;14.88;100.00
45872;BME280;32333;55.844;-3.210;2022-10-24T02:54:30;97313.12;;;14.26;100.00
45872;BME280;32333;55.844;-3.210;2022-10-24T02:57:00;97312.14;;;14.22;100.00
45872;BME280;32333;55.844;-3.210;2022-10-24T02:59:29;97308.04;;;14.24;100.00
45872;BME280;32333;55.844;-3.210;2022-10-24T03:01:56;97300.90;;;14.65;100.00
45872;BME280;32333;55.844;-3.210;2022-10-24T03:04:24;97302.05;;;14.10;100.00
45872;BME280;32333;55.844;-3.210;2022-10-24T03:06:52;97300.72;;;14.38;100.00
45872;BME280;32333;55.844;-3.210;2022-10-24T03:09:19;97299.77;;;14.60;100.00
45872;BME280;32333;55.844;-3.210;2022-10-24T03:11:47;97297.77;;;14.24;100.00
45872;BME280;32333;55.844;-3.210;2022-10-24T03:14:35;97287.69;;;15.40;100.00
45872;BME280;32333;55.844;-3.210;2022-10-24T03:17:03;97289.88;;;14.28;100.00
45872;BME280;32333;55.844;-3.210;2022-10-24T03:19:30;97291.38;;;14.68;100.00
45872;BME280;32333;55.844;-3.210;2022-10-24T03:21:58;97287.94;;;14.37;100.00
45872;BME280;32333;55.844;-3.210;2022-10-24T03:24:25;97291.35;;;13.89;100.00
45872;BME280;32333;55.844;-3.210;2022-10-24T03:26:52;97287.22;;;13.78;100.00
45872;BME280;32333;55.844;-3.210;2022-10-24T03:29:20;97286.48;;;13.85;100.00
45872;BME280;32333;55.844;-3.210;2022-10-24T03:31:47;97282.68;;;13.94;100.00
45872;BME280;32333;55.844;-3.210;2022-10-24T03:34:14;97281.10;;;13.96;100.00
45872;BME280;32333;55.844;-3.210;2022-10-24T03:36:41;97279.37;;;14.07;100.00
45872;BME280;32333;55.844;-3.210;2022-10-24T03:39:10;97279.78;;;14.57;100.00
45872;BME280;32333;55.844;-3.210;2022-10-24T03:41:37;97273.41;;;14.19;100.00
45872;BME280;32333;55.844;-3.210;2022-10-24T03:44:35;97273.32;;;14.45;100.00
45872;BME280;32333;55.844;-3.210;2022-10-24T03:47:02;97271.75;;;14.24;100.00
45872;BME280;32333;55.844;-3.210;2022-10-24T03:49:30;97265.65;;;15.17;100.00
45872;BME280;32333;55.844;-3.210;2022-10-24T03:51:58;97262.26;;;15.10;100.00
45872;BME280;32333;55.844;-3.210;2022-10-24T03:54:26;97268.91;;;14.31;100.00
45872;BME280;32333;55.844;-3.210;2022-10-24T03:56:54;97270.12;;;14.05;100.00
45872;BME280;32333;55.844;-3.210;2022-10-24T03:59:22;97274.48;;;14.15;100.00
45872;BME280;32333;55.844;-3.210;2022-10-24T04:01:50;97277.71;;;14.29;100.00
45872;BME280;32333;55.844;-3.210;2022-10-24T04:04:17;97280.74;;;14.17;100.00
45872;BME280;32333;55.844;-3.210;2022-10-24T04:06:47;97281.74;;;13.75;100.00
45872;BME280;32333;55.844;-3.210;2022-10-24T04:09:14;97282.44;;;13.31;100.00
45872;BME280;32333;55.844;-3.210;2022-10-24T04:11:42;97280.27;;;12.83;100.00
45872;BME280;32333;55.844;-3.210;2022-10-24T04:14:35;97283.22;;;12.79;100.00
45872;BME280;32333;55.844;-3.210;2022-10-24T04:17:03;97287.35;;;13.93;100.00
45872;BME280;32333;55.844;-3.210;2022-10-24T04:19:30;97287.02;;;12.70;100.00
45872;BME280;32333;55.844;-3.210;2022-10-24T04:21:59;97288.61;;;13.23;100.00
45872;BME280;32333;55.844;-3.210;2022-10-24T04:24:28;97288.43;;;12.82;100.00
45872;BME280;32333;55.844;-3.210;2022-10-24T04:26:55;97290.10;;;12.62;100.00
45872;BME280;32333;55.844;-3.210;2022-10-24T04:29:22;97290.93;;;12.91;100.00
45872;BME280;32333;55.844;-3.210;2022-10-24T04:31:50;97287.75;;;12.99;100.00
45872;BME280;32333;55.844;-3.210;2022-10-24T04:34:17;97289.75;;;13.12;100.00
45872;BME280;32333;55.844;-3.210;2022-10-24T04:36:46;97288.06;;;12.82;100.00
45872;BME280;32333;55.844;-3.210;2022-10-24T04:39:13;97289.86;;;12.73;100.00
45872;BME280;32333;55.844;-3.210;2022-10-24T04:41:40;97292.65;;;13.19;100.00
45872;BME280;32333;55.844;-3.210;2022-10-24T04:44:35;97294.96;;;12.19;100.00
45872;BME280;32333;55.844;-3.210;2022-10-24T04:47:02;97298.36;;;13.09;100.00
45872;BME280;32333;55.844;-3.210;2022-10-24T04:49:30;97298.97;;;12.97;100.00
45872;BME280;32333;55.844;-3.210;2022-10-24T04:51:58;97297.19;;;12.85;100.00
45872;BME280;32333;55.844;-3.210;2022-10-24T04:54:25;97301.15;;;13.07;100.00
45872;BME280;32333;55.844;-3.210;2022-10-24T04:56:52;97306.77;;;11.60;100.00
45872;BME280;32333;55.844;-3.210;2022-10-24T04:59:20;97304.10;;;12.89;100.00
45872;BME280;32333;55.844;-3.210;2022-10-24T05:01:47;97304.72;;;13.59;100.00
45872;BME280;32333;55.844;-3.210;2022-10-24T05:04:15;97304.27;;;13.25;100.00
45872;BME280;32333;55.844;-3.210;2022-10-24T05:06:43;97306.43;;;12.92;100.00
45872;BME280;32333;55.844;-3.210;2022-10-24T05:09:11;97307.70;;;13.23;100.00
45872;BME280;32333;55.844;-3.210;2022-10-24T05:11:38;97309.05;;;12.29;100.00
45872;BME280;32333;55.844;-3.210;2022-10-24T05:14:35;97309.87;;;12.55;100.00
45872;BME280;32333;55.844;-3.210;2022-10-24T05:17:03;97307.50;;;12.17;100.00
45872;BME280;32333;55.844;-3.210;2022-10-24T05:19:32;97308.08;;;12.82;100.00
45872;BME280;32333;55.844;-3.210;2022-10-24T05:21:59;97314.91;;;12.09;100.00
45872;BME280;32333;55.844;-3.210;2022-10-24T05:24:26;97318.62;;;12.84;100.00
45872;BME280;32333;55.844;-3.210;2022-10-24T05:26:53;97320.43;;;12.60;100.00
45872;BME280;32333;55.844;-3.210;2022-10-24T05:29:21;97325.66;;;12.01;100.00
45872;BME280;32333;55.844;-3.210;2022-10-24T05:31:48;97329.87;;;12.22;100.00
45872;BME280;32333;55.844;-3.210;2022-10-24T05:34:15;97328.52;;;12.15;100.00
45872;BME280;32333;55.844;-3.210;2022-10-24T05:36:43;97330.15;;;11.94;100.00
45872;BME280;32333;55.844;-3.210;2022-10-24T05:39:11;97330.72;;;12.35;100.00
45872;BME280;32333;55.844;-3.210;2022-10-24T05:41:38;97330.34;;;11.22;100.00
45872;BME280;32333;55.844;-3.210;2022-10-24T05:44:36;97329.93;;;12.56;100.00
45872;BME280;32333;55.844;-3.210;2022-10-24T05:47:04;97332.21;;;11.47;100.00
45872;BME280;32333;55.844;-3.210;2022-10-24T05:49:32;97331.15;;;12.34;100.00
45872;BME280;32333;55.844;-3.210;2022-10-24T05:52:00;97336.17;;;12.36;100.00
45872;BME280;32333;55.844;-3.210;2022-10-24T05:54:27;97339.33;;;12.08;100.00
45872;BME280;32333;55.844;-3.210;2022-10-24T05:56:54;97341.95;;;11.77;100.00
45872;BME280;32333;55.844;-3.210;2022-10-24T05:59:23;97347.46;;;12.50;100.00
45872;BME280;32333;55.844;-3.210;2022-10-24T06:01:51;97347.76;;;11.95;100.00
45872;BME280;32333;55.844;-3.210;2022-10-24T06:04:18;97355.45;;;11.30;100.00
45872;BME280;32333;55.844;-3.210;2022-10-24T06:06:47;97358.05;;;11.50;100.00
45872;BME280;32333;55.844;-3.210;2022-10-24T06:09:14;97363.22;;;10.54;100.00
45872;BME280;32333;55.844;-3.210;2022-10-24T06:11:42;97362.44;;;11.74;100.00
45872;BME280;32333;55.844;-3.210;2022-10-24T06:14:36;97363.01;;;12.32;100.00
45872;BME280;32333;55.844;-3.210;2022-10-24T06:17:04;97363.82;;;11.71;100.00
45872;BME280;32333;55.844;-3.210;2022-10-24T06:19:32;97364.39;;;12.17;100.00
45872;BME280;32333;55.844;-3.210;2022-10-24T06:21:59;97366.31;;;11.88;100.00
45872;BME280;32333;55.844;-3.210;2022-10-24T06:24:27;97365.30;;;11.34;100.00
45872;BME280;32333;55.844;-3.210;2022-10-24T06:26:55;97362.60;;;12.07;100.00
45872;BME280;32333;55.844;-3.210;2022-10-24T06:29:23;97366.88;;;11.98;100.00
45872;BME280;32333;55.844;-3.210;2022-10-24T06:31:50;97369.26;;;11.30;100.00
45872;BME280;32333;55.844;-3.210;2022-10-24T06:34:18;97368.30;;;11.73;100.00
45872;BME280;32333;55.844;-3.210;2022-10-24T06:36:46;97370.57;;;11.46;100.00
45872;BME280;32333;55.844;-3.210;2022-10-24T06:39:13;97367.83;;;11.18;100.00
45872;BME280;32333;55.844;-3.210;2022-10-24T06:41:41;97369.04;;;10.63;100.00
45872;BME280;32333;55.844;-3.210;2022-10-24T06:44:36;97376.78;;;10.26;100.00
45872;BME280;32333;55.844;-3.210;2022-10-24T06:47:03;97379.52;;;9.44;100.00
45872;BME280;32333;55.844;-3.210;2022-10-24T06:49:31;97378.56;;;9.44;100.00
45872;BME280;32333;55.844;-3.210;2022-10-24T06:51:59;97381.99;;;9.37;100.00
45872;BME280;32333;55.844;-3.210;2022-10-24T06:54:27;97385.34;;;9.50;100.00
45872;BME280;32333;55.844;-3.210;2022-10-24T06:56:54;97388.62;;;9.78;100.00
45872;BME280;32333;55.844;-3.210;2022-10-24T06:59:22;97389.03;;;9.59;100.00
45872;BME280;32333;55.844;-3.210;2022-10-24T07:01:50;97393.55;;;10.18;100.00
45872;BME280;32333;55.844;-3.210;2022-10-24T07:04:17;97392.82;;;10.36;100.00
45872;BME280;32333;55.844;-3.210;2022-10-24T07:06:44;97395.53;;;9.84;100.00
45872;BME280;32333;55.844;-3.210;2022-10-24T07:09:12;97399.98;;;10.42;100.00
45872;BME280;32333;55.844;-3.210;2022-10-24T07:11:40;97404.05;;;10.22;100.00
45872;BME280;32333;55.844;-3.210;2022-10-24T07:14:36;97407.25;;;10.52;100.00
45872;BME280;32333;55.844;-3.210;2022-10-24T07:17:03;97405.95;;;11.08;100.00
45872;BME280;32333;55.844;-3.210;2022-10-24T07:19:30;97408.53;;;11.07;100.00
45872;BME280;32333;55.844;-3.210;2022-10-24T07:21:58;97414.15;;;10.89;100.00
45872;BME280;32333;55.844;-3.210;2022-10-24T07:24:25;97411.72;;;11.73;100.00
45872;BME280;32333;55.844;-3.210;2022-10-24T07:26:53;97408.64;;;11.84;100.00
45872;BME280;32333;55.844;-3.210;2022-10-24T07:29:20;97406.48;;;11.36;100.00
45872;BME280;32333;55.844;-3.210;2022-10-24T07:31:48;97407.78;;;12.44;100.00
45872;BME280;32333;55.844;-3.210;2022-10-24T07:34:16;97410.34;;;12.35;100.00
45872;BME280;32333;55.844;-3.210;2022-10-24T07:36:44;97409.78;;;12.31;100.00
45872;BME280;32333;55.844;-3.210;2022-10-24T07:39:12;97410.68;;;12.79;100.00
45872;BME280;32333;55.844;-3.210;2022-10-24T07:41:40;97417.84;;;12.35;100.00
45872;BME280;32333;55.844;-3.210;2022-10-24T07:44:36;97419.74;;;12.44;100.00
45872;BME280;32333;55.844;-3.210;2022-10-24T07:47:03;97423.37;;;12.50;100.00
45872;BME280;32333;55.844;-3.210;2022-10-24T07:49:30;97425.19;;;12.92;100.00
45872;BME280;32333;55.844;-3.210;2022-10-24T07:51:58;97426.61;;;12.35;100.00
45872;BME280;32333;55.844;-3.210;2022-10-24T07:54:26;97428.65;;;11.49;100.00
45872;BME280;32333;55.844;-3.210;2022-10-24T07:56:54;97428.04;;;11.66;100.00
45872;BME280;32333;55.844;-3.210;2022-10-24T07:59:23;97430.05;;;11.78;100.00
45872;BME280;32333;55.844;-3.210;2022-10-24T08:01:50;97431.47;;;12.27;100.00
45872;BME280;32333;55.844;-3.210;2022-10-24T08:04:17;97429.91;;;12.84;100.00
45872;BME280;32333;55.844;-3.210;2022-10-24T08:06:46;97426.33;;;11.74;100.00
45872;BME280;32333;55.844;-3.210;2022-10-24T08:09:13;97425.33;;;12.42;100.00
45872;BME280;32333;55.844;-3.210;2022-10-24T08:11:41;97427.59;;;12.36;100.00
45872;BME280;32333;55.844;-3.210;2022-10-24T08:14:36;97428.46;;;11.90;100.00
45872;BME280;32333;55.844;-3.210;2022-10-24T08:17:04;97430.47;;;11.88;100.00
45872;BME280;32333;55.844;-3.210;2022-10-24T08:19:32;97431.04;;;12.53;100.00
45872;BME280;32333;55.844;-3.210;2022-10-24T08:22:00;97430.58;;;12.63;100.00
45872;BME280;32333;55.844;-3.210;2022-10-24T08:24:28;97432.99;;;12.49;100.00
45872;BME280;32333;55.844;-3.210;2022-10-24T08:26:58;97433.56;;;11.09;100.00
45872;BME280;32333;55.844;-3.210;2022-10-24T08:29:26;97435.93;;;13.22;100.00
45872;BME280;32333;55.844;-3.210;2022-10-24T08:31:55;97436.32;;;13.02;100.00
45872;BME280;32333;55.844;-3.210;2022-10-24T08:34:23;97437.77;;;12.97;100.00
45872;BME280;32333;55.844;-3.210;2022-10-24T08:36:50;97435.73;;;13.61;100.00
45872;BME280;32333;55.844;-3.210;2022-10-24T08:39:18;97436.98;;;13.75;100.00
45872;BME280;32333;55.844;-3.210;2022-10-24T08:41:49;97434.18;;;13.26;100.00
45872;BME280;32333;55.844;-3.210;2022-10-24T08:44:36;97432.72;;;14.24;100.00
45872;BME280;32333;55.844;-3.210;2022-10-24T08:47:14;97432.10;;;14.00;100.00
45872;BME280;32333;55.844;-3.210;2022-10-24T08:49:48;97434.61;;;14.44;100.00
45872;BME280;32333;55.844;-3.210;2022-10-24T08:52:22;97434.52;;;14.03;100.00
45872;BME280;32333;55.844;-3.210;2022-10-24T08:54:53;97435.72;;;14.35;100.00
45872;BME280;32333;55.844;-3.210;2022-10-24T08:57:25;97437.35;;;15.15;100.00
45872;BME280;32333;55.844;-3.210;2022-10-24T08:59:57;97440.78;;;14.82;100.00
45872;BME280;32333;55.844;-3.210;2022-10-24T09:02:26;97436.49;;;14.12;100.00
45872;BME280;32333;55.844;-3.210;2022-10-24T09:05:00;97442.09;;;14.56;100.00
45872;BME280;32333;55.844;-3.210;2022-10-24T09:07:29;97440.60;;;13.86;100.00
45872;BME280;32333;55.844;-3.210;2022-10-24T09:10:04;97440.27;;;13.78;100.00
45872;BME280;32333;55.844;-3.210;2022-10-24T09:14:38;97441.34;;;14.05;100.00
45872;BME280;32333;55.844;-3.210;2022-10-24T09:17:13;97437.82;;;14.10;100.00
45872;BME280;32333;55.844;-3.210;2022-10-24T09:19:48;97443.23;;;14.54;100.00
45872;BME280;32333;55.844;-3.210;2022-10-24T09:22:18;97446.54;;;14.23;100.00
45872;BME280;32333;55.844;-3.210;2022-10-24T09:24:50;97449.31;;;14.40;100.00
45872;BME280;32333;55.844;-3.210;2022-10-24T09:27:23;97450.16;;;14.61;100.00
45872;BME280;32333;55.844;-3.210;2022-10-24T09:29:52;97456.73;;;14.86;100.00
45872;BME280;32333;55.844;-3.210;2022-10-24T09:32:22;97456.53;;;14.64;100.00
45872;BME280;32333;55.844;-3.210;2022-10-24T09:34:52;97458.63;;;14.54;100.00
45872;BME280;32333;55.844;-3.210;2022-10-24T09:37:38;97461.21;;;14.26;100.00
45872;BME280;32333;55.844;-3.210;2022-10-24T09:40:15;97465.75;;;13.81;100.00
45872;BME280;32333;55.844;-3.210;2022-10-24T09:44:37;97471.14;;;15.00;100.00
45872;BME280;32333;55.844;-3.210;2022-10-24T09:47:19;97471.55;;;14.67;100.00
45872;BME280;32333;55.844;-3.210;2022-10-24T09:49:48;97472.73;;;15.75;100.00
45872;BME280;32333;55.844;-3.210;2022-10-24T09:52:20;97477.82;;;15.55;100.00
45872;BME280;32333;55.844;-3.210;2022-10-24T09:55:05;97475.79;;;14.64;100.00
45872;BME280;32333;55.844;-3.210;2022-10-24T09:57:38;97472.02;;;15.01;100.00
45872;BME280;32333;55.844;-3.210;2022-10-24T10:00:21;97476.07;;;13.23;100.00
45872;BME280;32333;55.844;-3.210;2022-10-24T10:03:03;97479.34;;;14.28;100.00
45872;BME280;32333;55.844;-3.210;2022-10-24T10:05:47;97480.89;;;14.53;100.00
45872;BME280;32333;55.844;-3.210;2022-10-24T10:08:18;97483.14;;;14.42;100.00
45872;BME280;32333;55.844;-3.210;2022-10-24T10:11:05;97488.80;;;13.68;100.00
45872;BME280;32333;55.844;-3.210;2022-10-24T10:14:39;97487.26;;;13.68;100.00
45872;BME280;32333;55.844;-3.210;2022-10-24T10:17:20;97487.11;;;14.21;100.00
45872;BME280;32333;55.844;-3.210;2022-10-24T10:19:50;97486.87;;;14.23;100.00
45872;BME280;32333;55.844;-3.210;2022-10-24T10:22:24;97487.10;;;13.95;100.00
45872;BME280;32333;55.844;-3.210;2022-10-24T10:24:53;97490.21;;;13.26;100.00
45872;BME280;32333;55.844;-3.210;2022-10-24T10:27:27;97493.61;;;13.33;100.00
45872;BME280;32333;55.844;-3.210;2022-10-24T10:30:19;97492.04;;;13.52;100.00
45872;BME280;32333;55.844;-3.210;2022-10-24T10:32:56;97490.79;;;13.32;100.00
45872;BME280;32333;55.844;-3.210;2022-10-24T10:35:33;97492.37;;;12.09;100.00
45872;BME280;32333;55.844;-3.210;2022-10-24T10:38:14;97492.81;;;12.40;100.00
45872;BME280;32333;55.844;-3.210;2022-10-24T10:40:49;97488.86;;;12.58;100.00
45872;BME280;32333;55.844;-3.210;2022-10-24T10:44:47;97490.20;;;13.31;100.00
45872;BME280;32333;55.844;-3.210;2022-10-24T10:47:27;97493.85;;;13.42;100.00
45872;BME280;32333;55.844;-3.210;2022-10-24T10:49:57;97490.20;;;12.77;100.00
45872;BME280;32333;55.844;-3.210;2022-10-24T10:52:29;97491.68;;;13.15;100.00
45872;BME280;32333;55.844;-3.210;2022-10-24T10:55:20;97493.09;;;12.71;100.00
45872;BME280;32333;55.844;-3.210;2022-10-24T10:57:55;97496.55;;;12.74;100.00
45872;BME280;32333;55.844;-3.210;2022-10-24T11:00:32;97507.49;;;12.27;100.00
45872;BME280;32333;55.844;-3.210;2022-10-24T11:03:12;97511.59;;;12.52;100.00
45872;BME280;32333;55.844;-3.210;2022-10-24T11:05:52;97514.53;;;12.97;100.00
45872;BME280;32333;55.844;-3.210;2022-10-24T11:08:36;97514.82;;;13.07;100.00
45872;BME280;32333;55.844;-3.210;2022-10-24T11:11:11;97516.63;;;13.16;100.00
45872;BME280;32333;55.844;-3.210;2022-10-24T11:14:38;97517.22;;;13.12;100.00
45872;BME280;32333;55.844;-3.210;2022-10-24T11:17:13;97518.62;;;12.92;100.00
45872;BME280;32333;55.844;-3.210;2022-10-24T11:19:58;97515.85;;;12.07;100.00
45872;BME280;32333;55.844;-3.210;2022-10-24T11:22:33;97514.71;;;13.02;100.00
45872;BME280;32333;55.844;-3.210;2022-10-24T11:25:07;97513.89;;;13.09;100.00
45872;BME280;32333;55.844;-3.210;2022-10-24T11:27:43;97511.66;;;13.60;100.00
45872;BME280;32333;55.844;-3.210;2022-10-24T11:30:16;97509.64;;;13.62;100.00
45872;BME280;32333;55.844;-3.210;2022-10-24T11:32:49;97512.84;;;14.12;100.00
45872;BME280;32333;55.844;-3.210;2022-10-24T11:35:24;97511.47;;;13.85;100.00
45872;BME280;32333;55.844;-3.210;2022-10-24T11:37:57;97502.05;;;14.15;100.00
45872;BME280;32333;55.844;-3.210;2022-10-24T11:40:32;97502.98;;;13.43;100.00
45872;BME280;32333;55.844;-3.210;2022-10-24T11:44:44;97505.28;;;13.53;100.00
45872;BME280;32333;55.844;-3.210;2022-10-24T11:47:59;97507.12;;;13.72;100.00
45872;BME280;32333;55.844;-3.210;2022-10-24T11:50:34;97504.45;;;13.02;100.00
45872;BME280;32333;55.844;-3.210;2022-10-24T11:53:11;97509.24;;;13.16;100.00
45872;BME280;32333;55.844;-3.210;2022-10-24T11:55:43;97513.67;;;12.69;100.00
45872;BME280;32333;55.844;-3.210;2022-10-24T11:58:14;97509.44;;;13.10;100.00
45872;BME280;32333;55.844;-3.210;2022-10-24T12:01:06;97512.44;;;13.05;100.00
45872;BME280;32333;55.844;-3.210;2022-10-24T12:03:56;97514.55;;;12.67;100.00
45872;BME280;32333;55.844;-3.210;2022-10-24T12:06:42;97510.45;;;13.55;100.00
45872;BME280;32333;55.844;-3.210;2022-10-24T12:09:29;97510.98;;;13.09;100.00
45872;BME280;32333;55.844;-3.210;2022-10-24T12:14:47;97509.35;;;13.26;100.00
45872;BME280;32333;55.844;-3.210;2022-10-24T12:18:02;97516.69;;;13.56;100.00
45872;BME280;32333;55.844;-3.210;2022-10-24T12:20:32;97514.27;;;13.99;100.00
45872;BME280;32333;55.844;-3.210;2022-10-24T12:23:00;97518.91;;;12.24;100.00
45872;BME280;32333;55.844;-3.210;2022-10-24T12:25:31;97521.85;;;12.82;100.00
45872;BME280;32333;55.844;-3.210;2022-10-24T12:28:01;97524.76;;;12.57;100.00
45872;BME280;32333;55.844;-3.210;2022-10-24T12:30:31;97527.20;;;12.43;100.00
45872;BME280;32333;55.844;-3.210;2022-10-24T12:33:09;97528.75;;;12.42;100.00
45872;BME280;32333;55.844;-3.210;2022-10-24T12:35:48;97527.04;;;12.51;100.00
45872;BME280;32333;55.844;-3.210;2022-10-24T12:39:01;97530.74;;;13.10;100.00
45872;BME280;32333;55.844;-3.210;2022-10-24T12:41:39;97530.94;;;13.90;100.00
45872;BME280;32333;55.844;-3.210;2022-10-24T12:44:39;97529.35;;;12.99;100.00
45872;BME280;32333;55.844;-3.210;2022-10-24T12:47:59;97530.78;;;13.34;100.00
45872;BME280;32333;55.844;-3.210;2022-10-24T12:50:57;97528.06;;;13.04;100.00
45872;BME280;32333;55.844;-3.210;2022-10-24T12:53:32;97528.58;;;13.19;100.00
45872;BME280;32333;55.844;-3.210;2022-10-24T12:56:13;97529.14;;;12.57;100.00
45872;BME280;32333;55.844;-3.210;2022-10-24T12:58:47;97530.03;;;12.59;100.00
45872;BME280;32333;55.844;-3.210;2022-10-24T13:01:24;97532.88;;;13.69;100.00
45872;BME280;32333;55.844;-3.210;2022-10-24T13:04:08;97530.93;;;13.30;100.00
45872;BME280;32333;55.844;-3.210;2022-10-24T13:06:50;97531.09;;;13.73;100.00
45872;BME280;32333;55.844;-3.210;2022-10-24T13:09:29;97532.06;;;13.04;100.00
45872;BME280;32333;55.844;-3.210;2022-10-24T13:14:52;97532.37;;;14.17;100.00
45872;BME280;32333;55.844;-3.210;2022-10-24T13:17:31;97536.30;;;14.09;100.00
45872;BME280;32333;55.844;-3.210;2022-10-24T13:20:12;97536.39;;;14.19;100.00
45872;BME280;32333;55.844;-3.210;2022-10-24T13:22:42;97542.93;;;13.57;100.00
45872;BME280;32333;55.844;-3.210;2022-10-24T13:25:35;97541.53;;;14.87;100.00
45872;BME280;32333;55.844;-3.210;2022-10-24T13:28:38;97547.81;;;13.58;100.00
45872;BME280;32333;55.844;-3.210;2022-10-24T13:31:46;97545.41;;;13.19;100.00
45872;BME280;32333;55.844;-3.210;2022-10-24T13:34:22;97547.43;;;13.49;100.00
45872;BME280;32333;55.844;-3.210;2022-10-24T13:36:57;97547.46;;;13.17;100.00